Murrieta, CA (92563)

7:39 AM PDT on May 06, 2015 (GMT -0700)
Seven Oaks | | Change Station
CLOSE
Current Station
Personal Weather Station
Location: Angelus Oaks, CA
Elevation: 1283 ft
Nearby Weather Stations

Elev 1283 ft 33.58 °N, 117.18 °W | Updated 4 minutes ago

Overcast
Overcast
56.1 °F
Feels Like 56.1 °F
N
1.0
Wind Variable Wind from South
Gusts 1.0 mph

Today
High -- | Low -- °F
--% Chance of Precip.
Yesterday
High -- | Low -- °F
Precip. -- in
5:55 AM 7:35 PM
Waning Gibbous, 94% visible
Pressure 29.91 in
Visibility 10.0 miles
Clouds Scattered Clouds 1400 ft
Overcast 3700 ft
Dew Point 49 °F
Humidity 78%
Rainfall 0.00 in
Snow Depth Not available.
UV 0 out of 12
Pollen 6.00 out of 12
Air Quality Not available.
Flu Activity Sporadic
METAR KF70 061415Z AUTO 18003KT 10SM SCT014 OVC037 12/09 A2991 RMK AO1

More Conditions Fewer Conditions

Pressure 29.91 in
Visibility 10.0 miles
Clouds Scattered Clouds 1400 ft
Overcast 3700 ft
Dew Point 49 °F
Humidity 78%
Rainfall 0.00 in
Snow Depth Not available.
UV 0 out of 12
Pollen 6.00 out of 12
Air Quality Not available.
Flu Activity Sporadic
METAR KF70 061415Z AUTO 18003KT 10SM SCT014 OVC037 12/09 A2991 RMK AO1

More Conditions Fewer Conditions

10-Day Weather Forecast

Almanac

Astronomy

May. 06, 2015 Rise Set
Actual Time
Civil Twilight
Nautical Twilight
Astronomical Twilight
Moon
Length of Visible Light
Length of Day
Tomorrow will be .
, % of the Moon is Illuminated

Today's Extremes

State Highs State Lows

Community

WunderPhotos

Upload Photos

1,818,916 photos uploaded!

WunderBlogs® & News

Nearby

Air Quality

  Air Quality AQ Index Pollutant
Not available.

Snow Depth

Station Depth Elevation

Earthquake Activity

City Distance Mag. Time & Date
Minimum magnitude displayed is 2.5.

Coastal Water Temperatures

Place Temperature

Stations

Nearby Weather Stations

Station Location Temp. Windchill Dew Point Humidity Wind Precip. Elev Updated Type